Time;durP1;ratioP1;P1;durP2;ratioP2;P2;SDS_P1;SDS_P2;PMS_P1;PMS_P2;Temp;Humidity;BMP_temperature;BMP_pressure;BME280_temperature;BME280_humidity;BME280_pressure;Samples;Min_cycle;Max_cycle;Signal;HPM_P1;HPM_P2
2021/11/09 00:00:26;;;;;;;20.00;5.07;;;;;;;10.60;75.44;102376.47;6203837;28;20233;-63
2021/11/09 00:03:50;;;;;;;13.07;4.07;;;;;;;10.37;76.50;102378.69;6200822;28;20233;-63
2021/11/09 00:07:22;;;;;;;6.33;3.50;;;;;;;10.44;76.01;102378.84;6208502;28;20228;-64
2021/11/09 00:10:43;;;;;;;10.40;4.80;;;;;;;10.53;75.89;102377.25;6209525;28;20213;-63
2021/11/09 00:14:06;;;;;;;11.20;4.23;;;;;;;10.19;77.13;102381.84;6208469;28;20658;-64
2021/11/09 00:17:28;;;;;;;12.93;3.90;;;;;;;9.52;79.49;102371.94;6213342;28;20540;-64
2021/11/09 00:20:49;;;;;;;12.70;3.93;;;;;;;9.37;80.29;102371.63;6215051;28;20236;-63
2021/11/09 00:24:09;;;;;;;19.80;5.43;;;;;;;9.78;79.61;102368.97;6217080;28;20229;-64
2021/11/09 00:27:31;;;;;;;11.37;3.97;;;;;;;9.91;78.16;102377.88;6214683;28;20322;-64
2021/11/09 00:30:53;;;;;;;11.47;4.20;;;;;;;9.83;78.03;102372.53;6217560;28;20248;-63
2021/11/09 00:34:14;;;;;;;17.90;5.77;;;;;;;9.73;78.51;102375.78;6216107;28;20225;-63
2021/11/09 00:37:35;;;;;;;6.53;3.43;;;;;;;10.17;77.23;102378.34;6214196;28;20240;-63
2021/11/09 00:40:56;;;;;;;21.33;4.23;;;;;;;10.09;76.16;102377.34;6215512;28;20280;-64
2021/11/09 00:44:18;;;;;;;10.53;3.93;;;;;;;9.72;77.18;102368.84;6217532;28;20252;-63
2021/11/09 00:47:41;;;;;;;16.27;4.57;;;;;;;9.59;77.99;102370.31;6214495;28;20256;-63
2021/11/09 00:51:02;;;;;;;9.93;4.10;;;;;;;9.43;77.57;102371.75;6214667;28;20732;-63
2021/11/09 00:54:23;;;;;;;10.07;4.37;;;;;;;9.41;78.47;102370.84;6239174;28;20259;-63
2021/11/09 00:57:47;;;;;;;11.87;3.70;;;;;;;9.99;76.54;102363.28;6237540;28;20235;-64
2021/11/09 01:01:07;;;;;;;11.90;4.77;;;;;;;10.29;75.58;102373.34;6236533;28;20236;-62
2021/11/09 01:04:31;;;;;;;13.53;3.53;;;;;;;10.23;74.92;102353.28;6234337;28;20208;-63
2021/11/09 01:07:56;;;;;;;15.03;4.90;;;;;;;10.36;74.30;102353.53;6235722;28;20895;-64
2021/11/09 01:11:18;;;;;;;9.70;3.43;;;;;;;9.95;75.63;102351.06;6237793;28;20224;-63
2021/11/09 01:14:40;;;;;;;11.80;4.10;;;;;;;9.97;75.96;102346.75;6242115;28;20217;-64
2021/11/09 01:18:02;;;;;;;10.67;4.17;;;;;;;10.22;75.05;102350.66;6238202;28;20224;-63
2021/11/09 01:21:25;;;;;;;12.87;3.50;;;;;;;10.37;74.61;102348.34;6241329;28;20232;-63
2021/11/09 01:24:46;;;;;;;10.03;4.27;;;;;;;10.67;73.79;102341.84;6241261;28;20574;-64
2021/11/09 01:28:08;;;;;;;7.30;3.17;;;;;;;10.80;73.58;102349.00;6238873;28;20236;-63
2021/11/09 01:31:29;;;;;;;11.30;3.60;;;;;;;10.87;73.10;102355.16;6236795;28;20233;-63
2021/11/09 01:34:50;;;;;;;12.47;4.67;;;;;;;10.83;73.64;102350.75;6229537;28;20220;-63
2021/11/09 01:38:13;;;;;;;20.87;4.47;;;;;;;10.72;74.24;102352.34;6218353;28;20332;-63
2021/11/09 01:41:35;;;;;;;7.83;4.87;;;;;;;10.97;73.29;102359.66;6209782;28;20523;-63
2021/11/09 01:44:56;;;;;;;8.33;4.07;;;;;;;11.00;73.30;102364.91;6217341;28;20205;-63
2021/11/09 01:48:18;;;;;;;6.07;3.90;;;;;;;11.08;72.75;102364.16;6214999;28;20233;-63
2021/11/09 01:51:40;;;;;;;9.43;4.40;;;;;;;10.97;72.69;102358.78;6211436;28;20232;-63
2021/11/09 01:55:02;;;;;;;12.83;4.17;;;;;;;10.94;72.89;102358.75;6217007;28;20202;-63
2021/11/09 01:58:23;;;;;;;9.67;4.77;;;;;;;10.56;74.56;102359.03;6223898;28;20224;-63
2021/11/09 02:01:45;;;;;;;10.57;3.60;;;;;;;10.40;75.25;102355.31;6225841;28;21396;-63
2021/11/09 02:05:07;;;;;;;10.77;4.63;;;;;;;10.62;75.01;102359.13;6241557;28;20752;-62
2021/11/09 02:08:29;;;;;;;12.60;4.30;;;;;;;10.29;75.83;102352.50;6215571;28;20224;-63
2021/11/09 02:11:51;;;;;;;12.93;4.27;;;;;;;10.34;75.56;102365.66;6204127;28;20241;-63
2021/11/09 02:15:13;;;;;;;10.33;4.60;;;;;;;10.29;76.05;102362.91;6204845;28;20205;-63
2021/11/09 02:18:34;;;;;;;13.57;4.03;;;;;;;10.44;75.45;102362.34;6212518;28;20237;-64
2021/11/09 02:21:57;;;;;;;11.37;5.53;;;;;;;10.32;75.79;102372.56;6212220;28;20236;-64
2021/11/09 02:25:20;;;;;;;11.57;5.03;;;;;;;10.15;76.14;102380.03;6213568;28;20197;-64
2021/11/09 02:28:42;;;;;;;15.13;4.50;;;;;;;10.34;75.63;102376.94;6211729;28;20237;-63
2021/11/09 02:32:04;;;;;;;9.13;4.17;;;;;;;10.08;76.58;102376.47;6214228;28;20237;-64
2021/11/09 02:35:26;;;;;;;11.20;5.00;;;;;;;10.29;76.21;102370.72;6214039;28;20291;-63
2021/11/09 02:38:49;;;;;;;6.70;3.47;;;;;;;10.50;75.40;102377.19;6213822;28;20237;-63
2021/11/09 02:42:11;;;;;;;10.73;3.93;;;;;;;10.50;75.47;102371.97;6223516;28;21124;-63
2021/11/09 02:45:39;;;;;;;14.93;5.60;;;;;;;10.24;75.69;102381.06;6238004;28;20311;-62
2021/11/09 02:49:06;;;;;;;10.57;4.53;;;;;;;10.44;75.57;102378.84;6211787;28;20232;-63
2021/11/09 02:52:30;;;;;;;8.43;3.83;;;;;;;10.32;75.71;102389.06;6210207;28;20502;-64
2021/11/09 02:55:57;;;;;;;9.30;3.57;;;;;;;10.44;74.92;102393.59;6213258;28;20665;-63
2021/11/09 02:59:30;;;;;;;18.43;5.60;;;;;;;10.28;75.00;102391.56;6238170;28;20217;-64
2021/11/09 03:02:54;;;;;;;12.23;4.43;;;;;;;10.30;75.16;102401.16;6222932;28;20319;-64
2021/11/09 03:06:25;;;;;;;15.53;5.90;;;;;;;9.66;77.15;102414.69;6212910;28;20253;-63
2021/11/09 03:09:52;;;;;;;14.17;4.87;;;;;;;9.56;77.80;102407.56;6236978;28;20469;-64
2021/11/09 03:13:15;;;;;;;12.13;4.33;;;;;;;9.62;77.08;102409.41;6219735;28;20233;-64
2021/11/09 03:16:39;;;;;;;13.80;5.27;;;;;;;9.58;77.41;102411.06;6211704;28;20233;-64
2021/11/09 03:20:02;;;;;;;10.37;4.27;;;;;;;9.75;76.94;102410.50;6209287;28;20336;-63
2021/11/09 03:45:19;;;;;;;10.63;5.27;;;;;;;9.34;80.23;102431.34;6227149;28;20229;-64
2021/11/09 03:48:42;;;;;;;12.03;4.90;;;;;;;9.22;80.05;102430.22;6224894;28;21777;-63
2021/11/09 03:52:08;;;;;;;14.13;4.73;;;;;;;9.27;80.32;102431.22;6225022;28;20229;-64
2021/11/09 03:55:40;;;;;;;17.27;6.73;;;;;;;9.33;79.99;102427.88;6226571;28;20225;-64
2021/11/09 03:59:04;;;;;;;21.83;7.43;;;;;;;9.38;79.81;102431.47;6224883;28;20255;-63
2021/11/09 04:02:30;;;;;;;11.80;6.97;;;;;;;9.41;80.75;102433.25;6215490;28;20587;-63
2021/11/09 04:05:55;;;;;;;14.10;6.27;;;;;;;9.08;81.62;102421.25;6208870;28;20213;-63
2021/11/09 04:09:21;;;;;;;16.27;5.50;;;;;;;9.28;81.79;102426.88;6211373;28;20253;-63
2021/11/09 04:13:02;;;;;;;20.30;7.20;;;;;;;9.35;81.58;102427.91;6209792;28;20245;-63
2021/11/09 04:16:35;;;;;;;18.53;7.40;;;;;;;9.58;80.21;102429.28;6212304;28;20622;-64
2021/11/09 04:20:01;;;;;;;11.50;6.10;;;;;;;9.40;81.75;102429.78;6227759;28;20197;-64
2021/11/09 04:30:55;;;;;;;13.63;6.83;;;;;;;9.12;83.32;102430.88;6210956;28;20328;-63
2021/11/09 04:52:47;;;;;;;11.80;6.60;;;;;;;9.22;83.06;102444.94;6224974;28;20236;-64
2021/11/09 05:10:44;;;;;;;12.83;9.37;;;;;;;9.04;83.43;102466.22;6236363;28;20209;-62
2021/11/09 05:14:08;;;;;;;15.47;10.47;;;;;;;8.82;84.74;102470.88;6196710;28;20611;-63
2021/11/09 05:17:31;;;;;;;8.87;7.67;;;;;;;9.10;83.97;102461.16;6198554;28;20237;-63
2021/11/09 05:20:52;;;;;;;10.77;5.00;;;;;;;9.10;81.61;102460.28;6199258;28;20307;-63
2021/11/09 05:24:13;;;;;;;6.07;4.73;;;;;;;9.46;79.65;102445.50;6232572;28;20232;-63
2021/11/09 05:27:34;;;;;;;8.33;3.73;;;;;;;9.24;80.20;102449.31;6234618;28;20239;-63
2021/11/09 05:30:55;;;;;;;7.03;4.60;;;;;;;9.18;80.25;102457.00;6236192;28;20213;-63
2021/11/09 05:34:17;;;;;;;6.67;5.27;;;;;;;9.19;81.25;102456.16;6212223;28;20248;-63
2021/11/09 05:37:41;;;;;;;11.13;5.47;;;;;;;9.28;81.50;102471.06;6212797;28;20241;-63
2021/11/09 05:41:07;;;;;;;9.67;6.67;;;;;;;9.09;82.56;102482.75;6211587;28;20198;-63
2021/11/09 05:44:28;;;;;;;9.63;7.13;;;;;;;9.00;82.39;102480.84;6214621;28;20228;-63
2021/11/09 05:47:49;;;;;;;10.20;8.00;;;;;;;9.11;82.33;102493.19;6210769;28;20328;-63
2021/11/09 05:51:12;;;;;;;10.90;9.73;;;;;;;9.13;82.88;102495.03;6212969;28;20214;-64
2021/11/09 05:54:33;;;;;;;13.47;8.97;;;;;;;9.11;82.19;102499.31;6239439;28;20201;-64
2021/11/09 05:57:53;;;;;;;12.37;9.50;;;;;;;9.26;80.65;102504.84;6229095;28;20232;-63
2021/11/09 06:01:14;;;;;;;18.90;10.10;;;;;;;9.29;81.08;102513.56;6219465;28;20228;-63
2021/11/09 06:04:35;;;;;;;11.30;9.77;;;;;;;9.13;80.66;102513.22;6210874;28;20202;-64
2021/11/09 06:07:58;;;;;;;16.37;9.70;;;;;;;9.16;80.44;102525.41;6204292;28;20252;-63
2021/11/09 06:11:19;;;;;;;13.00;8.63;;;;;;;9.10;80.35;102528.72;6204162;28;20210;-63
2021/11/09 06:14:40;;;;;;;10.93;8.87;;;;;;;9.35;80.49;102518.91;6210082;28;20592;-63
2021/11/09 06:18:01;;;;;;;9.90;8.57;;;;;;;9.46;79.36;102533.06;6205143;28;20634;-63
2021/11/09 06:21:22;;;;;;;8.93;7.17;;;;;;;9.34;80.09;102537.94;6209396;28;20236;-63
2021/11/09 06:24:45;;;;;;;8.67;7.77;;;;;;;9.12;81.29;102542.63;6210383;28;20202;-63
2021/11/09 06:28:06;;;;;;;11.43;8.67;;;;;;;9.05;81.63;102532.91;6216041;28;20237;-64
2021/11/09 06:31:31;;;;;;;12.23;8.63;;;;;;;9.02;82.17;102536.34;6227294;28;20224;-64
2021/11/09 06:34:52;;;;;;;11.87;8.40;;;;;;;9.46;79.54;102538.25;6226448;28;20224;-63
2021/11/09 06:38:13;;;;;;;11.47;9.90;;;;;;;9.42;80.36;102552.91;6213961;28;20229;-64
2021/11/09 06:41:35;;;;;;;14.40;9.43;;;;;;;9.41;80.35;102555.47;6212067;28;20236;-64
2021/11/09 06:44:56;;;;;;;13.60;11.53;;;;;;;9.72;79.48;102545.75;6205471;28;20299;-63
2021/11/09 06:48:18;;;;;;;12.43;11.23;;;;;;;9.74;78.84;102559.69;6208322;28;20264;-61
2021/11/09 06:51:39;;;;;;;24.87;13.80;;;;;;;9.75;79.35;102556.22;6205111;28;20229;-61
2021/11/09 06:55:01;;;;;;;15.77;13.97;;;;;;;9.84;79.43;102559.03;6204523;28;20213;-61
2021/11/09 06:58:24;;;;;;;17.37;12.83;;;;;;;10.27;77.59;102562.50;6200143;28;20260;-61
2021/11/09 07:01:47;;;;;;;15.03;13.67;;;;;;;9.89;78.77;102543.50;6205544;28;20573;-62
2021/11/09 07:05:09;;;;;;;16.33;12.80;;;;;;;10.23;77.90;102551.16;6206624;28;20237;-62
2021/11/09 07:12:06;;;;;;;13.83;12.40;;;;;;;9.76;79.16;102542.38;6175316;28;20317;-64
2021/11/09 07:15:28;;;;;;;16.13;12.03;;;;;;;9.35;80.56;102545.78;6183873;28;20706;-63
2021/11/09 07:18:54;;;;;;;14.63;11.83;;;;;;;9.41;80.63;102537.25;6185111;28;20816;-63
2021/11/09 07:22:15;;;;;;;13.20;10.67;;;;;;;9.85;79.10;102547.78;6182760;28;20230;-63
2021/11/09 07:25:36;;;;;;;14.00;11.47;;;;;;;9.90;79.12;102556.53;6180752;28;20213;-62
2021/11/09 07:28:57;;;;;;;13.07;11.53;;;;;;;9.74;80.24;102546.66;6181277;28;20273;-62
2021/11/09 07:32:21;;;;;;;16.73;10.67;;;;;;;9.57;80.91;102557.56;6184729;28;20741;-64
2021/11/09 07:35:42;;;;;;;13.40;10.87;;;;;;;9.42;81.35;102557.19;6184394;28;20233;-63
2021/11/09 07:39:05;;;;;;;15.97;11.10;;;;;;;9.42;81.93;102563.31;6182810;28;20610;-63
2021/11/09 07:42:26;;;;;;;17.37;11.43;;;;;;;9.35;81.94;102570.91;6170047;28;20230;-64
2021/11/09 07:45:47;;;;;;;14.20;10.10;;;;;;;9.33;82.56;102576.06;6173927;28;20191;-63
2021/11/09 07:49:10;;;;;;;10.10;9.03;;;;;;;9.43;81.49;102579.78;6174717;28;20308;-63
2021/11/09 07:52:31;;;;;;;12.33;10.17;;;;;;;9.23;82.36;102587.09;6173329;28;20225;-64
2021/11/09 07:56:00;;;;;;;13.37;9.93;;;;;;;9.41;81.44;102586.66;6170911;28;20205;-64
2021/11/09 07:59:29;;;;;;;12.07;8.47;;;;;;;9.50;81.01;102576.50;6173653;28;20249;-63
2021/11/09 08:03:01;;;;;;;10.47;9.30;;;;;;;9.76;79.77;102590.06;6173079;28;20595;-61
2021/11/09 08:06:25;;;;;;;10.77;9.50;;;;;;;9.94;79.12;102575.72;6177517;28;20237;-61
2021/11/09 08:09:46;;;;;;;10.03;8.23;;;;;;;9.72;80.29;102588.25;6181539;28;20241;-61
2021/11/09 08:13:07;;;;;;;9.73;8.00;;;;;;;10.20;78.29;102586.69;6188584;28;20265;-62
2021/11/09 08:16:28;;;;;;;9.93;7.80;;;;;;;9.22;80.73;102606.13;6182907;28;20226;-62
2021/11/09 08:19:49;;;;;;;12.30;8.20;;;;;;;9.42;81.16;102598.81;6190295;28;20202;-61
2021/11/09 08:23:12;;;;;;;10.23;7.23;;;;;;;9.80;79.24;102609.25;6189131;28;20229;-61
2021/11/09 08:26:33;;;;;;;10.07;6.27;;;;;;;9.82;78.96;102603.22;6192185;28;20230;-62
2021/11/09 08:29:57;;;;;;;9.43;6.93;;;;;;;12.53;67.81;102604.38;6190867;28;20203;-63
2021/11/09 08:33:19;;;;;;;10.40;7.17;;;;;;;14.90;61.71;102593.69;6195023;28;20495;-62
2021/11/09 08:36:43;;;;;;;7.60;5.63;;;;;;;14.36;60.06;102598.81;6189284;28;20860;-63
2021/11/09 08:40:12;;;;;;;8.33;4.77;;;;;;;13.56;63.29;102597.50;6191721;28;20304;-63
2021/11/09 08:43:36;;;;;;;7.28;5.45;;;;;;;14.59;59.18;102611.13;6185844;28;20232;-65
2021/11/09 08:47:00;;;;;;;12.00;6.13;;;;;;;12.98;63.40;102613.56;6190718;28;20242;-63
2021/11/09 08:50:24;;;;;;;9.80;6.57;;;;;;;13.88;61.47;102615.13;6192094;28;20202;-62
2021/11/09 08:53:51;;;;;;;7.88;5.32;;;;;;;16.06;55.71;102597.09;6187320;28;20229;-64
2021/11/09 08:57:31;;;;;;;12.77;6.18;;;;;;;16.20;53.49;102599.66;6187831;28;20241;-62
2021/11/09 09:04:31;;;;;;;13.50;8.80;;;;;;;15.66;54.79;102609.41;6187093;28;20495;-63
2021/11/09 09:07:52;;;;;;;13.75;7.72;;;;;;;14.40;59.79;102604.03;6185608;28;20308;-61
2021/11/09 09:11:13;;;;;;;10.88;7.88;;;;;;;13.87;60.11;102611.66;6189147;28;20241;-63
2021/11/09 09:14:36;;;;;;;12.82;9.07;;;;;;;13.42;62.07;102614.84;6192141;28;20214;-66
2021/11/09 09:17:57;;;;;;;12.77;9.13;;;;;;;15.38;55.86;102614.72;6188674;28;20225;-63
2021/11/09 09:21:23;;;;;;;12.70;8.68;;;;;;;17.06;52.56;102617.63;6189953;28;20202;-64
2021/11/09 09:25:00;;;;;;;17.55;9.65;;;;;;;15.11;55.29;102621.69;6181652;28;20206;-65
2021/11/09 09:54:22;;;;;;;15.88;10.70;;;;;;;18.77;44.88;102612.22;6187520;28;20241;-64
2021/11/09 09:57:44;;;;;;;16.73;10.73;;;;;;;16.16;51.92;102626.84;6185587;28;20260;-64
2021/11/09 10:01:05;;;;;;;20.45;11.30;;;;;;;15.78;51.07;102632.19;6181603;28;20614;-64
2021/11/09 10:04:29;;;;;;;16.15;10.43;;;;;;;18.18;44.79;102617.41;6184780;28;20863;-62
2021/11/09 10:07:53;;;;;;;15.50;11.07;;;;;;;16.60;48.59;102628.41;6181308;28;20257;-62
2021/11/09 10:11:29;;;;;;;18.48;11.23;;;;;;;16.29;48.09;102617.16;6180917;28;20511;-62
2021/11/09 10:14:53;;;;;;;18.65;11.00;;;;;;;17.49;47.09;102611.09;6188164;28;20241;-62
2021/11/09 10:18:15;;;;;;;16.85;10.10;;;;;;;17.15;46.97;102607.88;6187109;28;20320;-62
2021/11/09 10:21:38;;;;;;;16.13;9.32;;;;;;;17.76;45.05;102603.78;6187741;28;20234;-64
2021/11/09 10:25:05;;;;;;;20.77;9.43;;;;;;;17.19;45.73;102615.75;6188433;28;20745;-64
2021/11/09 10:28:27;;;;;;;15.82;10.15;;;;;;;17.51;44.80;102607.56;6183367;28;20283;-65
2021/11/09 10:31:47;;;;;;;14.95;9.52;;;;;;;16.91;46.29;102605.44;6182973;28;20225;-64
2021/11/09 10:35:14;;;;;;;17.25;9.75;;;;;;;16.27;46.82;102606.66;6185269;28;20229;-64
2021/11/09 10:38:35;;;;;;;14.07;8.85;;;;;;;16.68;46.16;102605.53;6177925;28;20275;-63
2021/11/09 10:42:11;;;;;;;20.58;8.65;;;;;;;17.23;45.51;102598.16;6176012;28;20229;-61
2021/11/09 10:45:35;;;;;;;15.40;8.60;;;;;;;16.12;46.58;102601.44;6180345;28;20591;-62
2021/11/09 10:48:57;;;;;;;15.65;8.95;;;;;;;17.00;45.29;102606.25;6182866;28;20364;-63
2021/11/09 10:52:25;;;;;;;17.65;10.32;;;;;;;16.21;47.50;102590.91;6184098;28;20324;-64
2021/11/09 10:56:03;;;;;;;14.52;8.85;;;;;;;16.37;46.32;102588.22;6181549;28;20646;-61
2021/11/09 10:59:46;;;;;;;16.15;8.30;;;;;;;17.00;45.28;102591.34;6176869;28;20210;-62
2021/11/09 11:03:22;;;;;;;14.48;9.18;;;;;;;19.31;40.78;102593.78;6180397;28;20234;-63
2021/11/09 11:06:45;;;;;;;39.55;31.27;;;;;;;18.87;41.10;102588.31;6182169;28;20238;-65
2021/11/09 11:10:06;;;;;;;254.27;226.77;;;;;;;18.50;40.58;102594.13;6183247;28;20213;-63
2021/11/09 11:13:28;;;;;;;27.40;24.67;;;;;;;18.75;39.36;102585.84;6181658;28;20237;-64
2021/11/09 11:16:54;;;;;;;17.50;7.90;;;;;;;17.99;40.15;102586.00;6179426;28;20229;-62
2021/11/09 11:20:15;;;;;;;14.98;7.13;;;;;;;19.55;38.03;102578.38;6188791;28;20718;-64
2021/11/09 11:23:37;;;;;;;17.55;8.93;;;;;;;17.95;40.43;102586.06;6187019;28;20261;-64
2021/11/09 11:26:59;;;;;;;15.10;8.10;;;;;;;19.11;38.77;102566.84;6183426;28;20233;-64
2021/11/09 11:30:20;;;;;;;14.65;8.15;;;;;;;16.98;42.84;102576.44;6182444;28;20202;-64
2021/11/09 11:33:44;;;;;;;15.73;7.07;;;;;;;17.13;41.59;102587.69;6186367;28;20225;-64
2021/11/09 11:37:05;;;;;;;13.88;7.30;;;;;;;18.01;40.14;102572.78;6180525;28;20321;-64
2021/11/09 11:40:27;;;;;;;12.93;8.18;;;;;;;18.33;39.17;102563.59;6184833;28;20206;-64
2021/11/09 11:44:02;;;;;;;16.20;8.45;;;;;;;17.21;41.55;102565.72;6181464;28;20252;-64
2021/11/09 11:47:24;;;;;;;17.70;7.97;;;;;;;18.72;36.99;102567.41;6178316;28;21925;-64
2021/11/09 11:50:46;;;;;;;13.73;6.38;;;;;;;17.36;40.11;102560.31;6176972;28;20237;-61
2021/11/09 11:54:08;;;;;;;11.75;6.78;;;;;;;17.18;40.06;102576.28;6175834;28;20234;-61
2021/11/09 11:57:44;;;;;;;11.45;5.53;;;;;;;17.01;39.45;102561.50;6182762;28;20237;-61
2021/11/09 12:01:04;;;;;;;16.65;6.13;;;;;;;18.17;38.08;102552.41;6180184;28;20194;-61
2021/11/09 12:04:50;;;;;;;13.77;5.95;;;;;;;17.21;38.63;102565.72;6175135;28;20205;-61
2021/11/09 12:08:15;;;;;;;11.20;5.65;;;;;;;19.28;35.38;102546.28;6179645;28;20229;-60
2021/11/09 12:11:41;;;;;;;11.75;6.80;;;;;;;17.83;38.40;102552.78;6185486;28;20827;-65
2021/11/09 12:15:05;;;;;;;9.93;6.05;;;;;;;17.48;39.55;102548.78;6192284;28;20214;-65
2021/11/09 12:18:39;;;;;;;9.85;6.00;;;;;;;17.74;38.53;102542.34;6186155;28;20285;-65
2021/11/09 12:22:06;;;;;;;11.75;5.60;;;;;;;17.95;37.79;102543.88;6182754;28;20812;-64
2021/11/09 12:25:39;;;;;;;13.50;5.80;;;;;;;15.84;41.44;102554.25;6178053;28;20285;-64
2021/11/09 12:29:00;;;;;;;14.85;7.43;;;;;;;15.74;43.19;102542.00;6181295;28;20230;-65
2021/11/09 12:32:39;;;;;;;11.73;5.05;;;;;;;15.09;44.64;102538.63;6177491;28;20245;-62
2021/11/09 12:36:19;;;;;;;11.63;5.82;;;;;;;15.13;44.67;102535.97;6180713;28;20214;-61
2021/11/09 12:39:40;;;;;;;13.70;5.57;;;;;;;14.51;45.93;102544.66;6173126;28;20214;-64
2021/11/09 12:43:14;;;;;;;11.73;6.30;;;;;;;14.30;45.99;102555.94;6172076;28;20499;-61
2021/11/09 12:46:38;;;;;;;17.47;7.23;;;;;;;14.29;46.30;102541.13;6178241;28;20234;-61
2021/11/09 12:49:59;;;;;;;15.00;7.37;;;;;;;13.51;47.54;102558.22;6188054;28;20537;-62
2021/11/09 12:53:21;;;;;;;15.70;8.13;;;;;;;13.70;47.32;102537.38;6187388;28;20234;-62
2021/11/09 12:56:45;;;;;;;15.70;7.70;;;;;;;13.93;46.35;102535.72;6183786;28;20264;-61
2021/11/09 13:00:15;;;;;;;17.37;7.90;;;;;;;14.73;45.75;102520.25;6182950;28;20202;-62
2021/11/09 13:03:42;;;;;;;12.50;6.67;;;;;;;13.08;49.06;102525.59;6184363;28;20233;-61
2021/11/09 13:07:12;;;;;;;9.57;5.07;;;;;;;13.90;47.80;102519.13;6182156;28;20257;-62
2021/11/09 13:10:38;;;;;;;11.33;6.70;;;;;;;13.93;47.26;102512.16;6188798;28;20217;-62
2021/11/09 13:14:07;;;;;;;11.10;6.47;;;;;;;13.61;47.52;102516.38;6187296;28;20226;-61
2021/11/09 13:17:38;;;;;;;13.27;6.60;;;;;;;13.60;47.05;102533.81;6185308;28;20236;-65
2021/11/09 13:21:06;;;;;;;11.30;5.87;;;;;;;13.65;46.96;102510.28;6186265;28;20229;-63
2021/11/09 13:24:27;;;;;;;12.27;5.83;;;;;;;13.84;45.98;102504.28;6187747;28;20225;-64
2021/11/09 13:27:49;;;;;;;13.47;5.60;;;;;;;13.07;48.23;102502.94;6173695;28;20246;-63
2021/11/09 13:31:13;;;;;;;12.07;4.83;;;;;;;13.45;47.80;102489.25;6178296;28;20202;-62
2021/11/09 13:34:35;;;;;;;10.60;5.63;;;;;;;13.54;47.12;102494.53;6179023;28;20195;-63
2021/11/09 13:38:08;;;;;;;9.60;5.47;;;;;;;13.34;46.90;102510.13;6167552;28;20245;-63
2021/11/09 13:41:32;;;;;;;11.63;5.40;;;;;;;12.88;48.40;102496.69;6170177;28;20233;-64
2021/11/09 13:44:55;;;;;;;15.63;5.93;;;;;;;13.52;47.22;102481.44;6175514;28;20222;-62
2021/11/09 13:48:17;;;;;;;15.53;6.57;;;;;;;13.89;46.87;102476.34;6180460;28;20230;-64
2021/11/09 13:51:47;;;;;;;10.57;4.57;;;;;;;13.95;46.83;102481.59;6180518;28;20245;-63
2021/11/09 13:55:08;;;;;;;15.80;6.57;;;;;;;13.63;47.88;102481.50;6171018;28;20222;-64
2021/11/09 13:58:29;;;;;;;12.20;5.13;;;;;;;12.87;48.95;102482.72;6176434;28;21165;-63
2021/11/09 14:01:56;;;;;;;11.73;4.80;;;;;;;12.43;49.64;102482.31;6170761;28;20607;-63
2021/11/09 14:05:51;;;;;;;9.27;4.33;;;;;;;12.59;49.68;102490.31;6171543;28;20210;-63
2021/11/09 14:16:38;;;;;;;17.17;4.63;;;;;;;12.34;50.22;102494.44;6166133;28;20261;-64
2021/11/09 14:20:08;;;;;;;10.33;4.97;;;;;;;12.69;49.72;102486.03;6183307;28;20297;-63
2021/11/09 14:23:31;;;;;;;12.03;4.53;;;;;;;12.55;49.78;102492.91;6169975;28;21503;-61
2021/11/09 14:27:05;;;;;;;8.67;4.10;;;;;;;12.95;48.98;102482.75;6173264;28;20237;-61
2021/11/09 14:30:28;;;;;;;13.70;4.83;;;;;;;12.61;49.92;102493.81;6165883;28;20333;-62
2021/11/09 14:33:51;;;;;;;12.50;5.73;;;;;;;12.46;50.37;102495.41;6170452;28;20242;-63
2021/11/09 14:37:18;;;;;;;7.20;4.13;;;;;;;12.88;49.08;102486.22;6173929;28;20608;-63
2021/11/09 14:40:42;;;;;;;9.17;4.97;;;;;;;12.90;49.53;102490.59;6170559;28;20233;-63
2021/11/09 14:44:05;;;;;;;10.80;4.17;;;;;;;12.84;49.13;102494.91;6165921;28;20312;-64
2021/11/09 14:47:26;;;;;;;12.37;5.77;;;;;;;12.53;50.68;102505.06;6167600;28;20245;-64
2021/11/09 14:50:52;;;;;;;9.57;4.63;;;;;;;12.53;50.57;102500.72;6171657;28;20202;-65
2021/11/09 14:54:16;;;;;;;9.47;4.33;;;;;;;12.47;50.90;102503.28;6171810;28;20228;-65
2021/11/09 14:57:41;;;;;;;12.07;5.27;;;;;;;12.39;52.02;102503.19;6185370;28;20241;-62
2021/11/09 15:01:08;;;;;;;8.83;4.77;;;;;;;12.47;51.65;102505.03;6183049;28;20209;-61
2021/11/09 15:04:37;;;;;;;14.57;6.27;;;;;;;12.07;52.24;102505.44;6177709;28;20225;-63
2021/11/09 15:11:46;;;;;;;11.67;5.57;;;;;;;12.26;52.84;102497.84;6175777;28;20626;-64
2021/11/09 15:26:13;;;;;;;10.77;5.73;;;;;;;11.88;54.75;102509.53;6182332;28;20193;-64
2021/11/09 15:29:41;;;;;;;9.37;5.20;;;;;;;11.83;55.15;102509.50;6184518;28;21381;-64
2021/11/09 15:33:03;;;;;;;15.27;6.37;;;;;;;11.66;55.88;102512.75;6179658;28;20252;-65
2021/11/09 15:36:44;;;;;;;15.33;7.27;;;;;;;11.58;56.12;102510.91;6182062;28;20730;-64
2021/11/09 15:40:10;;;;;;;10.53;6.20;;;;;;;11.47;57.07;102514.22;6175903;28;20261;-65
2021/11/09 15:43:33;;;;;;;15.20;6.97;;;;;;;11.62;56.52;102517.91;6179154;28;20687;-65
2021/11/09 15:46:55;;;;;;;9.87;6.17;;;;;;;11.65;56.42;102508.38;6177821;28;20230;-64
2021/11/09 15:50:15;;;;;;;15.83;6.97;;;;;;;11.70;56.24;102512.78;6179131;28;20748;-65
2021/11/09 15:53:38;;;;;;;12.60;5.43;;;;;;;11.48;57.20;102514.25;6179976;28;20327;-65
2021/11/09 15:56:59;;;;;;;21.00;6.53;;;;;;;11.48;56.94;102509.03;6178133;28;20242;-63
2021/11/09 16:00:20;;;;;;;11.63;5.80;;;;;;;11.29;57.83;102520.03;6178274;28;20301;-65
2021/11/09 16:03:41;;;;;;;15.03;7.23;;;;;;;11.78;56.46;102508.53;6183589;28;20230;-65
2021/11/09 16:07:03;;;;;;;12.57;7.37;;;;;;;11.89;56.36;102508.72;6186332;28;20507;-64
2021/11/09 16:10:27;;;;;;;18.40;6.87;;;;;;;11.37;57.12;102515.81;6186391;28;20221;-64
2021/11/09 16:13:48;;;;;;;14.97;8.97;;;;;;;11.61;57.12;102507.44;6187254;28;20267;-65
2021/11/09 16:17:10;;;;;;;9.57;6.57;;;;;;;11.23;57.81;102516.47;6183686;28;20261;-66
2021/11/09 16:20:31;;;;;;;17.13;6.90;;;;;;;11.42;57.21;102515.03;6189351;28;20202;-64
2021/11/09 16:23:52;;;;;;;15.27;8.63;;;;;;;11.51;57.11;102509.03;6185446;28;20242;-64
2021/11/09 16:27:15;;;;;;;17.27;9.13;;;;;;;11.45;57.09;102503.75;6183069;28;20233;-64
2021/11/09 16:30:36;;;;;;;15.90;7.63;;;;;;;11.14;57.81;102520.69;6187415;28;20206;-64
2021/11/09 16:33:58;;;;;;;18.90;7.77;;;;;;;11.20;57.55;102524.25;6184226;28;20225;-64
2021/11/09 16:37:19;;;;;;;9.43;6.80;;;;;;;11.28;57.65;102531.31;6186670;28;20234;-64
2021/11/09 16:40:42;;;;;;;9.83;8.07;;;;;;;11.26;57.65;102527.81;6190029;28;20230;-62
2021/11/09 16:44:07;;;;;;;12.70;7.77;;;;;;;11.65;56.35;102516.19;6191125;28;20229;-63
2021/11/09 16:47:29;;;;;;;12.67;6.93;;;;;;;11.15;57.91;102531.13;6191440;28;20329;-65
2021/11/09 16:51:06;;;;;;;9.97;7.17;;;;;;;11.30;57.82;102533.13;6191957;28;20230;-64
2021/11/09 16:54:32;;;;;;;11.60;7.47;;;;;;;11.48;57.38;102537.72;6190326;28;20225;-64
2021/11/09 17:05:32;;;;;;;9.27;6.63;;;;;;;10.90;58.54;102548.09;6186753;28;20202;-64
2021/11/09 18:12:25;;;;;;;16.40;8.37;;;;;;;10.96;59.95;102545.59;6184213;28;20234;-64
2021/11/09 18:22:24;;;;;;;10.87;7.40;;;;;;;10.70;60.57;102563.41;6190975;28;20603;-65
2021/11/09 18:25:46;;;;;;;13.90;8.50;;;;;;;10.98;60.24;102561.25;6186571;28;20209;-64
2021/11/09 18:29:08;;;;;;;14.83;7.77;;;;;;;10.96;60.30;102566.44;6176230;28;20257;-63
2021/11/09 18:32:29;;;;;;;12.77;7.73;;;;;;;10.62;61.47;102559.75;6187631;28;20233;-64
2021/11/09 18:35:52;;;;;;;13.20;7.80;;;;;;;10.36;62.28;102570.56;6186441;28;20203;-65
2021/11/09 18:39:13;;;;;;;11.70;8.33;;;;;;;10.59;61.53;102567.53;6184443;28;20206;-64
2021/11/09 18:42:35;;;;;;;14.27;8.43;;;;;;;10.09;63.05;102557.81;6178905;28;20238;-63
2021/11/09 18:45:58;;;;;;;10.40;7.53;;;;;;;10.40;61.82;102551.53;6184758;28;20254;-64
2021/11/09 18:49:19;;;;;;;24.17;9.43;;;;;;;10.65;60.95;102557.22;6189585;28;20225;-64
2021/11/09 18:52:40;;;;;;;11.57;8.53;;;;;;;10.22;62.10;102564.16;6188399;28;20618;-64
2021/11/09 18:56:01;;;;;;;9.57;7.20;;;;;;;10.09;62.30;102563.03;6189289;28;20741;-64